createdAt,value
2022-10-28T00:00:14.179Z,95114.00
2022-10-28T00:02:41.021Z,95112.31
2022-10-28T00:05:08.821Z,95118.88
2022-10-28T00:07:35.899Z,95121.78
2022-10-28T00:10:02.847Z,95114.84
2022-10-28T00:12:30.311Z,95122.59
2022-10-28T00:14:57.245Z,95125.09
2022-10-28T00:19:55.840Z,95119.44
2022-10-28T00:22:22.868Z,95122.41
2022-10-28T00:24:49.537Z,95119.09
2022-10-28T00:27:16.250Z,95118.66
2022-10-28T00:29:43.150Z,95112.16
2022-10-28T00:32:09.837Z,95114.03
2022-10-28T00:34:36.520Z,95118.81
2022-10-28T00:37:04.250Z,95121.97
2022-10-28T00:39:30.977Z,95113.56
2022-10-28T00:42:03.988Z,95118.63
2022-10-28T00:44:40.214Z,95113.25
2022-10-28T00:47:16.590Z,95112.47
2022-10-28T00:49:48.424Z,95110.56
2022-10-28T00:52:19.622Z,95105.66
2022-10-28T00:54:47.674Z,95108.34
2022-10-28T00:57:18.617Z,95109.00
2022-10-28T00:59:51.914Z,95103.13
2022-10-28T01:02:19.906Z,95106.78
2022-10-28T01:04:49.149Z,95109.47
2022-10-28T01:07:17.145Z,95105.50
2022-10-28T01:09:43.981Z,95101.09
2022-10-28T01:12:45.289Z,95101.56
2022-10-28T01:15:24.392Z,95106.91
2022-10-28T01:18:25.181Z,95097.47
2022-10-28T01:21:34.014Z,95097.47
2022-10-28T01:24:12.804Z,95089.41
2022-10-28T01:27:05.369Z,95090.31
2022-10-28T01:29:49.842Z,95083.38
2022-10-28T01:32:39.701Z,95081.63
2022-10-28T01:35:32.499Z,95083.06
2022-10-28T01:38:21.662Z,95085.13
2022-10-28T01:40:55.628Z,95087.34
2022-10-28T01:43:29.574Z,95087.47
2022-10-28T01:46:11.829Z,95081.19
2022-10-28T01:48:44.388Z,95082.41
2022-10-28T01:51:44.321Z,95069.75
2022-10-28T01:54:13.722Z,95077.84
2022-10-28T01:56:42.896Z,95072.94
2022-10-28T01:59:15.089Z,95070.97
2022-10-28T02:01:41.972Z,95074.78
2022-10-28T02:04:08.887Z,95071.00
2022-10-28T02:06:38.869Z,95073.88
2022-10-28T02:09:40.906Z,95074.03
2022-10-28T02:12:22.771Z,95084.66
2022-10-28T02:14:55.549Z,95075.78
2022-10-28T02:17:44.103Z,95088.06
2022-10-28T02:20:16.902Z,95088.06
2022-10-28T02:22:51.288Z,95076.84
2022-10-28T02:26:05.932Z,95076.84
2022-10-28T02:28:41.905Z,95074.00
2022-10-28T02:31:24.841Z,95072.53
2022-10-28T02:33:57.510Z,95069.38
2022-10-28T02:36:25.867Z,95072.22
2022-10-28T02:38:55.556Z,95068.09
2022-10-28T02:41:44.904Z,95075.34
2022-10-28T02:44:15.553Z,95064.13
2022-10-28T02:46:45.228Z,95067.78
2022-10-28T02:49:14.509Z,95068.41
2022-10-28T02:51:53.809Z,95065.06
2022-10-28T02:54:29.074Z,95071.53
2022-10-28T02:57:01.363Z,95065.53
2022-10-28T02:59:29.106Z,95067.13
2022-10-28T03:01:56.513Z,95065.06
2022-10-28T03:04:23.260Z,95063.00
2022-10-28T03:06:50.008Z,95065.19
2022-10-28T03:09:16.754Z,95062.22
2022-10-28T03:11:43.553Z,95066.63
2022-10-28T03:14:13.174Z,95055.19
2022-10-28T03:16:42.087Z,95057.84
2022-10-28T03:21:40.433Z,95056.75
2022-10-28T03:24:07.345Z,95053.94
2022-10-28T03:26:34.110Z,95054.84
2022-10-28T03:29:00.781Z,95050.53
2022-10-28T03:31:27.491Z,95049.75
2022-10-28T03:33:54.202Z,95051.03
2022-10-28T03:36:20.908Z,95051.81
2022-10-28T03:38:47.578Z,95048.94
2022-10-28T03:41:14.343Z,95047.19
2022-10-28T03:43:41.301Z,95055.72
2022-10-28T03:46:08.007Z,95052.25
2022-10-28T03:48:34.680Z,95050.47
2022-10-28T03:51:01.361Z,95058.03
2022-10-28T03:53:31.175Z,95051.44
2022-10-28T03:56:00.189Z,95051.59
2022-10-28T03:58:27.908Z,95054.13
2022-10-28T04:00:55.281Z,95047.59
2022-10-28T04:03:23.785Z,95044.19
2022-10-28T04:05:50.780Z,95055.72
2022-10-28T04:08:18.520Z,95046.63
2022-10-28T04:10:47.420Z,95051.03
2022-10-28T04:13:15.295Z,95048.25
2022-10-28T04:15:41.987Z,95050.00
2022-10-28T04:18:09.085Z,95057.13
2022-10-28T04:20:35.837Z,95056.34
2022-10-28T04:23:02.882Z,95048.59
2022-10-28T04:25:29.978Z,95050.94
2022-10-28T04:27:56.874Z,95041.75
2022-10-28T04:30:24.114Z,95042.97
2022-10-28T04:32:50.746Z,95045.47
2022-10-28T04:35:17.547Z,95050.06
2022-10-28T04:37:44.273Z,95049.75
2022-10-28T04:40:11.321Z,95057.47
2022-10-28T04:42:38.001Z,95052.13
2022-10-28T04:45:05.130Z,95043.09
2022-10-28T04:47:31.766Z,95052.91
2022-10-28T04:49:58.521Z,95053.41
2022-10-28T04:52:25.224Z,95061.94
2022-10-28T04:54:51.959Z,95054.50
2022-10-28T04:57:18.696Z,95045.91
2022-10-28T04:59:46.808Z,95054.56
2022-10-28T05:02:13.839Z,95055.69
2022-10-28T05:04:40.594Z,95051.88
2022-10-28T05:07:07.535Z,95052.34
2022-10-28T05:09:34.194Z,95057.41
2022-10-28T05:12:00.887Z,95053.47
2022-10-28T05:14:27.668Z,95043.41
2022-10-28T05:16:54.447Z,95054.38
2022-10-28T05:19:21.105Z,95056.75
2022-10-28T05:21:47.756Z,95056.41
2022-10-28T05:24:14.413Z,95057.19
2022-10-28T05:26:41.139Z,95048.88
2022-10-28T05:29:07.863Z,95062.31
2022-10-28T05:31:34.585Z,95058.84
2022-10-28T05:34:01.214Z,95057.44
2022-10-28T05:36:28.031Z,95060.91
2022-10-28T05:38:54.719Z,95056.16
2022-10-28T05:41:23.204Z,95051.25
2022-10-28T05:43:51.400Z,95048.53
2022-10-28T05:46:18.061Z,95053.56
2022-10-28T05:48:44.711Z,95042.53
2022-10-28T05:51:11.420Z,95045.56
2022-10-28T05:53:38.337Z,95040.56
2022-10-28T05:56:05.124Z,95042.16
2022-10-28T05:58:31.770Z,95046.28
2022-10-28T06:00:58.472Z,95052.88
2022-10-28T06:03:30.059Z,95060.47
2022-10-28T06:05:58.678Z,95062.50
2022-10-28T06:08:25.395Z,95062.31
2022-10-28T06:10:54.960Z,95065.75
2022-10-28T06:13:22.025Z,95064.56
2022-10-28T06:15:55.647Z,95063.09
2022-10-28T06:18:23.021Z,95052.38
2022-10-28T06:20:55.103Z,95056.69
2022-10-28T06:23:23.013Z,95063.56
2022-10-28T06:25:50.125Z,95057.75
2022-10-28T06:28:16.854Z,95058.09
2022-10-28T06:30:43.656Z,95061.72
2022-10-28T06:33:10.335Z,95062.22
2022-10-28T06:35:37.101Z,95070.78
2022-10-28T06:38:08.480Z,95073.03
2022-10-28T06:40:36.475Z,95079.97
2022-10-28T06:43:05.479Z,95075.09
2022-10-28T06:45:33.710Z,95069.53
2022-10-28T06:48:05.611Z,95080.28
2022-10-28T06:50:34.432Z,95085.34
2022-10-28T06:53:01.138Z,95076.50
2022-10-28T06:55:28.570Z,95088.34
2022-10-28T06:58:00.023Z,95095.44
2022-10-28T07:00:27.043Z,95090.06
2022-10-28T07:02:54.470Z,95098.47
2022-10-28T07:05:22.221Z,95092.63
2022-10-28T07:07:48.893Z,95095.00
2022-10-28T07:10:16.038Z,95094.56
2022-10-28T07:12:42.736Z,95081.63
2022-10-28T07:15:10.472Z,95090.16
2022-10-28T07:17:37.190Z,95099.78
2022-10-28T07:20:04.702Z,95099.16
2022-10-28T07:22:31.369Z,95094.09
2022-10-28T07:24:58.087Z,95100.13
2022-10-28T07:27:24.784Z,95107.88
2022-10-28T07:29:51.458Z,95103.59
2022-10-28T07:32:18.298Z,95100.94
2022-10-28T07:34:45.105Z,95103.91
2022-10-28T07:37:12.838Z,95110.25
2022-10-28T07:39:39.638Z,95109.78
2022-10-28T07:42:06.301Z,95108.34
2022-10-28T07:44:32.996Z,95110.56
2022-10-28T07:46:59.757Z,95120.84
2022-10-28T07:49:26.583Z,95113.28
2022-10-28T07:51:53.402Z,95123.72
2022-10-28T07:54:20.099Z,95103.28
2022-10-28T07:56:46.943Z,95110.97
2022-10-28T07:59:13.665Z,95103.94
2022-10-28T08:01:40.580Z,95118.09
2022-10-28T08:04:07.575Z,95109.28
2022-10-28T08:06:35.690Z,95108.53
2022-10-28T08:09:03.358Z,95116.09
2022-10-28T08:11:30.074Z,95101.44
2022-10-28T08:13:57.426Z,95103.28
2022-10-28T08:16:24.934Z,95106.56
2022-10-28T08:18:53.195Z,95094.31
2022-10-28T08:21:20.042Z,95101.63
2022-10-28T08:23:47.153Z,95100.19
2022-10-28T08:26:17.113Z,95099.19
2022-10-28T08:28:43.785Z,95104.59
2022-10-28T08:31:12.490Z,95097.75
2022-10-28T08:33:47.232Z,95096.16
2022-10-28T08:36:16.293Z,95092.34
2022-10-28T08:38:45.755Z,95091.91
2022-10-28T08:41:18.698Z,95095.84
2022-10-28T08:44:04.143Z,95099.00
2022-10-28T08:47:08.428Z,95099.13
2022-10-28T08:49:39.336Z,95097.22
2022-10-28T08:52:32.243Z,95101.94
2022-10-28T08:55:06.305Z,95095.66
2022-10-28T08:57:46.162Z,95106.09
2022-10-28T09:00:23.217Z,95106.97
2022-10-28T09:02:58.017Z,95108.41
2022-10-28T09:05:26.592Z,95102.88
2022-10-28T09:07:54.866Z,95098.47
2022-10-28T09:10:32.511Z,95099.56
2022-10-28T09:13:23.931Z,95097.47
2022-10-28T09:16:15.265Z,95084.13
2022-10-28T09:18:52.185Z,95092.63
2022-10-28T09:21:20.935Z,95091.53
2022-10-28T09:23:57.990Z,95095.28
2022-10-28T09:26:37.537Z,95102.03
2022-10-28T09:29:35.745Z,95093.81
2022-10-28T09:32:34.665Z,95100.22
2022-10-28T09:35:11.330Z,95100.09
2022-10-28T09:37:45.914Z,95098.53
2022-10-28T09:40:19.811Z,95102.13
2022-10-28T09:42:52.472Z,95102.94
2022-10-28T09:45:25.000Z,95105.84
2022-10-28T09:48:10.438Z,95114.88
2022-10-28T09:50:37.310Z,95114.97
2022-10-28T09:53:17.775Z,95111.09
2022-10-28T09:55:44.613Z,95122.63
2022-10-28T09:58:13.905Z,95124.19
2022-10-28T10:00:41.043Z,95124.19
2022-10-28T10:03:07.702Z,95124.91
2022-10-28T10:05:41.256Z,95135.88
2022-10-28T10:08:14.501Z,95126.84
2022-10-28T10:10:56.477Z,95133.59
2022-10-28T10:13:35.117Z,95135.56
2022-10-28T10:16:14.062Z,95139.03
2022-10-28T10:18:47.170Z,95142.75
2022-10-28T10:21:14.798Z,95132.66
2022-10-28T10:23:41.705Z,95137.16
2022-10-28T10:26:17.075Z,95145.38
2022-10-28T10:28:48.914Z,95134.91
2022-10-28T10:31:29.833Z,95134.56
2022-10-28T10:33:57.867Z,95139.63
2022-10-28T10:36:28.899Z,95137.94
2022-10-28T10:39:00.773Z,95136.94
2022-10-28T10:41:44.958Z,95123.75
2022-10-28T10:44:20.795Z,95133.66
2022-10-28T10:46:53.407Z,95131.59
2022-10-28T10:49:20.157Z,95131.44
2022-10-28T10:51:59.074Z,95124.28
2022-10-28T10:54:28.516Z,95125.25
2022-10-28T10:57:06.306Z,95118.72
2022-10-28T10:59:37.689Z,95104.94
2022-10-28T11:02:19.198Z,95092.91
2022-10-28T11:04:55.361Z,95094.03
2022-10-28T11:07:22.657Z,95109.31
2022-10-28T11:09:50.995Z,95105.66
2022-10-28T11:12:30.547Z,95110.06
2022-10-28T11:15:02.351Z,95102.69
2022-10-28T11:17:34.865Z,95099.66
2022-10-28T11:20:25.052Z,95095.31
2022-10-28T11:23:29.607Z,95097.66
2022-10-28T11:26:02.460Z,95098.59
2022-10-28T11:28:38.222Z,95088.81
2022-10-28T11:31:22.542Z,95087.97
2022-10-28T11:34:10.977Z,95090.72
2022-10-28T11:36:59.916Z,95093.56
2022-10-28T11:39:34.410Z,95095.59
2022-10-28T11:42:41.701Z,95080.78
2022-10-28T11:45:08.467Z,95080.81
2022-10-28T11:48:02.047Z,95078.00
2022-10-28T11:50:41.152Z,95074.88
2022-10-28T11:53:38.276Z,95064.59
2022-10-28T11:56:22.231Z,95069.16
2022-10-28T11:59:25.014Z,95064.88
2022-10-28T12:02:05.233Z,95062.69
2022-10-28T12:05:03.090Z,95055.44
2022-10-28T12:08:15.784Z,95061.09
2022-10-28T12:11:09.408Z,95057.78
2022-10-28T12:13:48.320Z,95063.66
2022-10-28T12:16:20.709Z,95064.56
2022-10-28T12:19:27.059Z,95066.53
2022-10-28T12:22:11.771Z,95063.28
2022-10-28T12:24:41.203Z,95072.34
2022-10-28T12:27:18.165Z,95071.28
2022-10-28T12:29:51.364Z,95073.03
2022-10-28T12:32:38.079Z,95081.31
2022-10-28T12:35:23.241Z,95083.78
2022-10-28T12:37:57.308Z,95078.91
2022-10-28T12:40:53.572Z,95070.91
2022-10-28T12:43:40.968Z,95056.81
2022-10-28T12:46:19.547Z,95055.97
2022-10-28T12:48:58.301Z,95068.53
2022-10-28T12:51:33.801Z,95055.72
2022-10-28T12:54:17.032Z,95061.00
2022-10-28T12:56:55.165Z,95061.19
2022-10-28T12:59:30.811Z,95063.91
2022-10-28T13:02:01.355Z,95053.97
2022-10-28T13:04:29.048Z,95053.63
2022-10-28T13:07:10.880Z,95049.66
2022-10-28T13:10:05.358Z,95045.06
2022-10-28T13:12:41.081Z,95038.94
2022-10-28T13:15:34.388Z,95029.88
2022-10-28T13:18:25.897Z,95032.50
2022-10-28T13:21:04.721Z,95032.69
2022-10-28T13:23:43.748Z,95024.66
2022-10-28T13:26:31.098Z,95022.91
2022-10-28T13:29:00.091Z,95021.69
2022-10-28T13:31:42.011Z,95011.84
2022-10-28T13:34:11.357Z,95014.44
2022-10-28T13:36:42.903Z,95009.47
2022-10-28T13:39:28.897Z,94999.28
2022-10-28T13:42:32.062Z,95004.16
2022-10-28T13:45:01.163Z,95014.34
2022-10-28T13:47:35.503Z,95012.38
2022-10-28T13:50:08.664Z,95008.06
2022-10-28T13:52:37.716Z,94997.56
2022-10-28T13:55:47.940Z,95009.81
2022-10-28T13:58:23.875Z,95013.88
2022-10-28T14:00:53.474Z,95021.44
2022-10-28T14:03:27.997Z,95020.19
2022-10-28T14:05:59.670Z,95023.72
2022-10-28T14:08:40.697Z,95025.81
2022-10-28T14:11:11.600Z,95033.81
2022-10-28T14:13:51.025Z,95028.47
2022-10-28T14:16:26.590Z,95030.13
2022-10-28T14:19:11.586Z,95029.75
2022-10-28T14:21:46.454Z,95030.13
2022-10-28T14:24:39.940Z,95043.81
2022-10-28T14:27:06.659Z,95036.78
2022-10-28T14:29:46.021Z,95036.31
2022-10-28T14:32:30.731Z,95029.31
2022-10-28T14:35:05.903Z,95037.81
2022-10-28T14:37:32.539Z,95037.28
2022-10-28T14:40:19.633Z,95034.25
2022-10-28T14:43:11.081Z,95034.44
2022-10-28T14:45:54.705Z,95026.06
2022-10-28T14:48:46.288Z,95029.84
2022-10-28T14:51:16.763Z,95041.75
2022-10-28T14:53:45.499Z,95042.06
2022-10-28T14:56:20.847Z,95040.41
2022-10-28T14:58:48.561Z,95043.13
2022-10-28T15:01:18.473Z,95034.97
2022-10-28T15:03:48.124Z,95027.53
2022-10-28T15:06:23.865Z,95027.09
2022-10-28T15:08:51.091Z,95028.97
2022-10-28T15:11:19.429Z,95026.97
2022-10-28T15:13:51.328Z,95030.84
2022-10-28T15:16:22.099Z,95034.28
2022-10-28T15:18:51.677Z,95031.16
2022-10-28T15:21:20.660Z,95028.03
2022-10-28T15:24:06.948Z,95027.94
2022-10-28T15:26:33.713Z,95018.16
2022-10-28T15:29:00.761Z,95019.25
2022-10-28T15:31:27.404Z,95017.31
2022-10-28T15:33:54.060Z,95021.47
2022-10-28T15:36:27.243Z,95030.41
2022-10-28T15:39:17.506Z,95024.09
2022-10-28T15:41:46.088Z,95018.16
2022-10-28T15:44:32.564Z,95034.75
2022-10-28T15:47:02.364Z,95027.69
2022-10-28T15:49:59.469Z,95023.78
2022-10-28T15:52:35.273Z,95025.22
2022-10-28T15:55:30.601Z,95028.66
2022-10-28T15:58:13.755Z,95033.59
2022-10-28T16:00:54.710Z,95033.47
2022-10-28T16:03:40.884Z,95038.06
2022-10-28T16:06:23.729Z,95037.97
2022-10-28T16:09:14.245Z,95038.69
2022-10-28T16:11:46.577Z,95037.03
2022-10-28T16:14:37.620Z,95040.44
2022-10-28T16:17:12.818Z,95026.00
2022-10-28T16:19:43.724Z,95031.78
2022-10-28T16:22:13.520Z,95034.50
2022-10-28T16:24:41.412Z,95031.25
2022-10-28T16:27:28.753Z,95037.75
2022-10-28T16:29:55.462Z,95042.81
2022-10-28T16:32:28.766Z,95046.72
2022-10-28T16:34:57.880Z,95049.19
2022-10-28T16:37:32.167Z,95056.13
2022-10-28T16:39:59.052Z,95044.41
2022-10-28T16:42:26.106Z,95048.69
2022-10-28T16:44:53.154Z,95053.41
2022-10-28T16:47:21.678Z,95052.63
2022-10-28T16:49:54.496Z,95046.81
2022-10-28T16:52:27.653Z,95048.97
2022-10-28T16:54:54.948Z,95047.66
2022-10-28T16:57:21.862Z,95052.28
2022-10-28T16:59:49.299Z,95049.50
2022-10-28T17:02:20.094Z,95052.94
2022-10-28T17:04:47.003Z,95050.22
2022-10-28T17:07:16.367Z,95051.78
2022-10-28T17:09:43.390Z,95049.69
2022-10-28T17:12:18.451Z,95044.53
2022-10-28T17:14:45.413Z,95050.31
2022-10-28T17:17:12.807Z,95045.75
2022-10-28T17:19:40.423Z,95045.56
2022-10-28T17:22:09.294Z,95056.22
2022-10-28T17:24:37.081Z,95052.81
2022-10-28T17:27:04.750Z,95043.88
2022-10-28T17:29:31.491Z,95043.97
2022-10-28T17:31:58.250Z,95041.69
2022-10-28T17:34:25.028Z,95053.41
2022-10-28T17:36:51.782Z,95050.69
2022-10-28T17:39:23.264Z,95061.13
2022-10-28T17:41:52.550Z,95058.41
2022-10-28T17:44:19.294Z,95056.41
2022-10-28T17:46:48.497Z,95058.75
2022-10-28T17:49:15.615Z,95054.03
2022-10-28T17:51:42.669Z,95061.81
2022-10-28T17:54:09.600Z,95052.38
2022-10-28T17:56:37.049Z,95054.72
2022-10-28T17:59:04.417Z,95050.00
2022-10-28T18:01:33.554Z,95050.00
2022-10-28T18:04:00.917Z,95054.91
2022-10-28T18:06:27.642Z,95045.94
2022-10-28T18:08:54.320Z,95051.72
2022-10-28T18:11:21.511Z,95049.06
2022-10-28T18:13:51.445Z,95039.72
2022-10-28T18:16:28.467Z,95048.69
2022-10-28T18:18:55.876Z,95058.34
2022-10-28T18:21:24.656Z,95060.34
2022-10-28T18:24:03.600Z,95049.50
2022-10-28T18:26:32.275Z,95049.06
2022-10-28T18:28:59.373Z,95051.41
2022-10-28T18:31:26.249Z,95049.84
2022-10-28T18:33:52.950Z,95053.34
2022-10-28T18:36:22.200Z,95045.84
2022-10-28T18:38:49.117Z,95057.03
2022-10-28T18:41:21.288Z,95057.41
2022-10-28T18:43:48.449Z,95052.16
2022-10-28T18:46:15.099Z,95050.03
2022-10-28T18:48:41.847Z,95056.69
2022-10-28T18:51:11.316Z,95054.78
2022-10-28T18:53:40.341Z,95056.81
2022-10-28T18:56:10.063Z,95057.41
2022-10-28T18:58:36.923Z,95056.66
2022-10-28T19:01:14.330Z,95059.16
2022-10-28T19:03:42.052Z,95068.97
2022-10-28T19:06:11.120Z,95059.63
2022-10-28T19:08:38.544Z,95059.44
2022-10-28T19:11:06.580Z,95052.44
2022-10-28T19:13:38.299Z,95059.66
2022-10-28T19:16:06.072Z,95063.72
2022-10-28T19:18:35.575Z,95060.13
2022-10-28T19:21:10.112Z,95052.56
2022-10-28T19:23:37.908Z,95054.09
2022-10-28T19:26:05.722Z,95052.41
2022-10-28T19:28:44.081Z,95060.59
2022-10-28T19:31:14.112Z,95049.19
2022-10-28T19:33:41.719Z,95050.31
2022-10-28T19:36:14.573Z,95057.81
2022-10-28T19:38:41.292Z,95058.28
2022-10-28T19:41:13.895Z,95066.06
2022-10-28T19:43:40.960Z,95064.16
2022-10-28T19:46:16.265Z,95068.22
2022-10-28T19:48:46.244Z,95070.81
2022-10-28T19:51:15.203Z,95072.19
2022-10-28T19:53:46.697Z,95072.06
2022-10-28T19:58:40.915Z,95069.81
2022-10-28T20:01:09.186Z,95069.00
2022-10-28T20:03:37.714Z,95067.31
2022-10-28T20:06:11.223Z,95066.16
2022-10-28T20:08:38.880Z,95067.28
2022-10-28T20:11:08.182Z,95067.47
2022-10-28T20:13:36.409Z,95064.53
2022-10-28T20:16:06.317Z,95068.13
2022-10-28T20:18:34.212Z,95068.69
2022-10-28T20:21:10.573Z,95066.44
2022-10-28T20:23:38.624Z,95078.03
2022-10-28T20:26:07.007Z,95073.31
2022-10-28T20:28:34.540Z,95069.25
2022-10-28T20:31:06.833Z,95075.34
2022-10-28T20:33:33.531Z,95072.47
2022-10-28T20:36:00.501Z,95068.19
2022-10-28T20:38:28.493Z,95075.72
2022-10-28T20:40:57.752Z,95079.50
2022-10-28T20:43:26.504Z,95071.81
2022-10-28T20:46:01.071Z,95071.16
2022-10-28T20:48:29.591Z,95079.94
2022-10-28T20:50:58.619Z,95066.41
2022-10-28T20:53:26.740Z,95069.22
2022-10-28T20:55:55.865Z,95066.28
2022-10-28T20:58:25.314Z,95065.03
2022-10-28T21:00:56.549Z,95061.38
2022-10-28T21:03:23.556Z,95061.94
2022-10-28T21:05:50.377Z,95061.94
2022-10-28T21:08:17.054Z,95055.72
2022-10-28T21:10:43.774Z,95065.88
2022-10-28T21:13:10.446Z,95065.09
2022-10-28T21:15:38.872Z,95068.47
2022-10-28T21:18:08.080Z,95058.94
2022-10-28T21:20:36.096Z,95062.44
2022-10-28T21:23:03.224Z,95059.88
2022-10-28T21:25:30.361Z,95063.94
2022-10-28T21:27:57.939Z,95069.56
2022-10-28T21:30:26.818Z,95066.31
2022-10-28T21:32:54.362Z,95072.97
2022-10-28T21:35:22.048Z,95070.94
2022-10-28T21:37:48.731Z,95069.72
2022-10-28T21:40:15.967Z,95066.66
2022-10-28T21:42:47.999Z,95078.38
2022-10-28T21:45:15.796Z,95079.50
2022-10-28T21:47:42.621Z,95075.91
2022-10-28T21:50:10.140Z,95072.41
2022-10-28T21:52:37.027Z,95071.16
2022-10-28T21:55:14.560Z,95078.38
2022-10-28T21:57:47.553Z,95077.03
2022-10-28T22:00:14.681Z,95065.13
2022-10-28T22:02:42.006Z,95072.31
2022-10-28T22:05:09.408Z,95073.59
2022-10-28T22:07:36.266Z,95074.19
2022-10-28T22:10:03.087Z,95074.78
2022-10-28T22:12:30.140Z,95078.81
2022-10-28T22:14:56.824Z,95071.03
2022-10-28T22:17:23.816Z,95068.91
2022-10-28T22:19:52.554Z,95073.16
2022-10-28T22:22:19.534Z,95073.53
2022-10-28T22:24:46.592Z,95075.53
2022-10-28T22:27:13.525Z,95066.53
2022-10-28T22:29:40.629Z,95073.69
2022-10-28T22:32:07.710Z,95070.06
2022-10-28T22:34:34.829Z,95066.66
2022-10-28T22:37:01.775Z,95071.41
2022-10-28T22:39:28.831Z,95068.72
2022-10-28T22:41:55.947Z,95069.38
2022-10-28T22:44:22.613Z,95071.59
2022-10-28T22:46:49.331Z,95073.19
2022-10-28T22:49:17.253Z,95073.50
2022-10-28T22:51:44.428Z,95079.03
2022-10-28T22:54:11.278Z,95079.53
2022-10-28T22:56:39.391Z,95081.13
2022-10-28T22:59:06.335Z,95079.88
2022-10-28T23:01:33.351Z,95078.28
2022-10-28T23:04:01.127Z,95078.72
2022-10-28T23:06:30.575Z,95084.44
2022-10-28T23:08:57.475Z,95078.38
2022-10-28T23:11:24.808Z,95082.03
2022-10-28T23:13:54.110Z,95077.28
2022-10-28T23:16:22.891Z,95082.34
2022-10-28T23:18:50.845Z,95080.13
2022-10-28T23:21:20.286Z,95075.22
2022-10-28T23:23:51.276Z,95076.78
2022-10-28T23:26:21.110Z,95070.06
2022-10-28T23:28:52.909Z,95078.56
2022-10-28T23:31:20.661Z,95071.16
2022-10-28T23:33:47.914Z,95060.66
2022-10-28T23:36:16.130Z,95069.69
2022-10-28T23:38:43.383Z,95072.13
2022-10-28T23:41:17.385Z,95067.47
2022-10-28T23:43:44.467Z,95074.25
2022-10-28T23:46:11.793Z,95064.81
2022-10-28T23:48:38.879Z,95069.09
2022-10-28T23:51:06.423Z,95068.41
2022-10-28T23:53:33.112Z,95071.56
2022-10-28T23:56:00.384Z,95075.72
2022-10-28T23:58:27.308Z,95067.63
